Station Historical Data
Daily Summary for March 31, 2012 Units:  English    Metric   Both
« Previous Day
Next Day »
Daily Weekly Monthly Yearly Custom
  High: Low: Average:
Temperature: 77.4 °F 59.3 °F 65.3 °F
Dew Point: 67.7 °F 54.4 °F 61.2 °F
Humidity: 96% 62% 88%
Wind Speed: 15.0mph 0.0mph 2.5mph
Wind Gust: 18.0mph - -
Wind- - South
Pressure: 29.86 in 29.75 in -
Precipitation: 0.01 in    
Historical Graphs
 
 
Tabular Data for March 31, 2012
Time Temperature Dew Point Pressure Wind Wind Speed Wind Gust Humidity Rainfall Rate (Hourly) Conditions
00:00 62.7 °F 61.0 °F 29.83 in South 1.0 mph 2.0 mph 94% 0.00 in
00:01 62.6 °F 60.8 °F 29.83 in Calm   2.0 mph 94% 0.00 in
00:02 62.7 °F 61.0 °F 29.83 in Calm   2.0 mph 94% 0.00 in
00:07 62.6 °F 60.8 °F 29.83 in SSE 1.0 mph 2.0 mph 94% 0.00 in
00:12 62.7 °F 61.0 °F 29.83 in South 2.0 mph 3.0 mph 94% 0.00 in
00:17 62.8 °F 61.0 °F 29.83 in SSE 2.0 mph 3.0 mph 94% 0.00 in
00:22 62.8 °F 61.0 °F 29.83 in SSE 1.0 mph 3.0 mph 94% 0.00 in
00:27 62.8 °F 61.0 °F 29.83 in South 1.0 mph 2.0 mph 94% 0.00 in
00:32 62.6 °F 60.8 °F 29.83 in SSE 1.0 mph 2.0 mph 94% 0.00 in
00:37 62.4 °F 60.7 °F 29.83 in South 1.0 mph 2.0 mph 94% 0.00 in
00:42 62.4 °F 60.7 °F 29.83 in SW 1.0 mph 2.0 mph 94% 0.00 in
00:48 62.4 °F 60.7 °F 29.83 in South 1.0 mph 2.0 mph 94% 0.00 in
00:53 62.2 °F 60.5 °F 29.83 in SW 1.0 mph 1.0 mph 94% 0.00 in
00:58 62.1 °F 60.4 °F 29.83 in SW 1.0 mph 3.0 mph 94% 0.00 in
01:03 62.1 °F 60.7 °F 29.83 in SW 1.0 mph 2.0 mph 95% 0.00 in
01:08 61.9 °F 60.5 °F 29.83 in South 1.0 mph 2.0 mph 95% 0.00 in
01:13 61.9 °F 60.5 °F 29.83 in South 1.0 mph 3.0 mph 95% 0.00 in
01:18 61.8 °F 60.4 °F 29.83 in Calm   2.0 mph 95% 0.00 in
01:23 61.7 °F 60.3 °F 29.83 in SSE 1.0 mph 1.0 mph 95% 0.00 in
01:28 61.8 °F 60.4 °F 29.83 in South 2.0 mph 2.0 mph 95% 0.00 in
01:33 62.0 °F 60.6 °F 29.82 in South 1.0 mph 2.0 mph 95% 0.00 in
01:38 62.0 °F 60.6 °F 29.83 in SSW 4.0 mph 4.0 mph 95% 0.00 in
01:43 62.0 °F 60.6 °F 29.83 in WSW 1.0 mph 3.0 mph 95% 0.00 in
01:48 61.8 °F 60.4 °F 29.83 in WSW 1.0 mph 2.0 mph 95% 0.00 in
01:53 61.8 °F 60.4 °F 29.83 in WSW 2.0 mph 2.0 mph 95% 0.00 in
01:58 61.6 °F 60.2 °F 29.83 in West 1.0 mph 2.0 mph 95% 0.00 in
02:03 61.7 °F 60.3 °F 29.84 in SW 3.0 mph 3.0 mph 95% 0.00 in
02:08 62.0 °F 60.6 °F 29.84 in WSW 1.0 mph 4.0 mph 95% 0.00 in
02:13 62.1 °F 60.7 °F 29.84 in WSW 1.0 mph 2.0 mph 95% 0.00 in
02:18 62.2 °F 60.8 °F 29.83 in SW 2.0 mph 2.0 mph 95% 0.00 in
02:23 62.3 °F 60.8 °F 29.83 in South 1.0 mph 3.0 mph 95% 0.00 in
02:28 62.3 °F 60.8 °F 29.83 in SW 2.0 mph 3.0 mph 95% 0.00 in
02:33 62.4 °F 61.0 °F 29.83 in SW 2.0 mph 5.0 mph 95% 0.00 in
02:38 62.4 °F 61.0 °F 29.83 in South 2.0 mph 3.0 mph 95% 0.00 in
02:43 62.4 °F 61.0 °F 29.83 in WSW 2.0 mph 4.0 mph 95% 0.00 in
02:48 62.4 °F 61.0 °F 29.83 in WSW 5.0 mph 5.0 mph 95% 0.00 in
02:53 62.4 °F 61.0 °F 29.83 in SSW 3.0 mph 4.0 mph 95% 0.00 in
02:58 62.2 °F 60.8 °F 29.83 in SW 3.0 mph 6.0 mph 95% 0.00 in
03:03 62.1 °F 60.7 °F 29.83 in SW 3.0 mph 5.0 mph 95% 0.00 in
03:08 62.1 °F 60.7 °F 29.82 in SW 1.0 mph 3.0 mph 95% 0.00 in
03:13 62.0 °F 60.6 °F 29.82 in SSW 3.0 mph 4.0 mph 95% 0.00 in
03:18 61.9 °F 60.5 °F 29.82 in SSW 5.0 mph 5.0 mph 95% 0.00 in
03:23 61.8 °F 60.4 °F 29.82 in SW 5.0 mph 6.0 mph 95% 0.00 in
03:28 61.8 °F 60.4 °F 29.82 in WSW 2.0 mph 4.0 mph 95% 0.00 in
03:33 61.8 °F 60.4 °F 29.82 in SW 2.0 mph 4.0 mph 95% 0.00 in
03:38 61.7 °F 60.3 °F 29.82 in SW 2.0 mph 3.0 mph 95% 0.00 in
03:43 61.7 °F 60.3 °F 29.82 in WSW 1.0 mph 2.0 mph 95% 0.00 in
03:48 61.6 °F 60.2 °F 29.82 in SW 3.0 mph 4.0 mph 95% 0.00 in
03:53 61.5 °F 60.1 °F 29.82 in SW 2.0 mph 5.0 mph 95% 0.00 in
03:58 61.5 °F 60.1 °F 29.82 in WSW 4.0 mph 5.0 mph 95% 0.00 in
04:04 61.5 °F 60.1 °F 29.82 in SW 1.0 mph 4.0 mph 95% 0.00 in
04:09 61.5 °F 60.1 °F 29.82 in SW 3.0 mph 5.0 mph 95% 0.00 in
04:14 61.4 °F 60.0 °F 29.82 in SW 4.0 mph 5.0 mph 95% 0.00 in
04:19 61.4 °F 60.0 °F 29.82 in SW 3.0 mph 4.0 mph 95% 0.00 in
04:24 61.4 °F 60.0 °F 29.82 in SW 3.0 mph 6.0 mph 95% 0.00 in
04:29 61.4 °F 60.0 °F 29.82 in SW 2.0 mph 5.0 mph 95% 0.00 in
04:34 61.3 °F 59.9 °F 29.82 in SSW 3.0 mph 5.0 mph 95% 0.00 in
04:39 61.3 °F 59.9 °F 29.83 in WSW 2.0 mph 5.0 mph 95% 0.00 in
04:44 61.3 °F 59.9 °F 29.83 in WSW 3.0 mph 4.0 mph 95% 0.00 in
04:49 61.3 °F 59.9 °F 29.83 in West 1.0 mph 3.0 mph 95% 0.00 in
04:54 61.3 °F 59.9 °F 29.84 in WNW 1.0 mph 2.0 mph 95% 0.00 in
04:59 61.3 °F 59.9 °F 29.83 in WSW 1.0 mph 2.0 mph 95% 0.00 in
05:04 61.3 °F 59.9 °F 29.83 in West 1.0 mph 3.0 mph 95% 0.00 in
05:09 61.3 °F 59.9 °F 29.84 in WSW 1.0 mph 3.0 mph 95% 0.00 in
05:14 61.3 °F 59.9 °F 29.84 in West 2.0 mph 2.0 mph 95% 0.00 in
05:19 61.3 °F 59.9 °F 29.84 in Calm   1.0 mph 95% 0.00 in
05:24 61.3 °F 59.9 °F 29.84 in Calm     95% 0.00 in
05:29 61.3 °F 59.9 °F 29.84 in Calm     95% 0.00 in
05:34 61.3 °F 59.9 °F 29.84 in Calm     95% 0.00 in
05:39 61.3 °F 59.9 °F 29.84 in Calm     95% 0.00 in
05:44 61.3 °F 59.9 °F 29.84 in Calm     95% 0.00 in
05:49 61.2 °F 59.8 °F 29.84 in Calm     95% 0.00 in
05:54 61.2 °F 59.8 °F 29.84 in Calm     95% 0.00 in
05:59 61.1 °F 59.7 °F 29.84 in Calm     95% 0.00 in
06:04 60.9 °F 59.5 °F 29.84 in Calm     95% 0.00 in
06:09 60.8 °F 59.4 °F 29.84 in Calm     95% 0.00 in
06:15 60.7 °F 59.3 °F 29.84 in Calm     95% 0.00 in
06:20 60.7 °F 59.3 °F 29.84 in Calm     95% 0.00 in
06:25 60.7 °F 59.3 °F 29.84 in Calm     95% 0.00 in
06:30 60.4 °F 59.0 °F 29.84 in Calm     95% 0.00 in
06:35 60.5 °F 59.1 °F 29.84 in Calm     95% 0.00 in
06:40 60.6 °F 59.2 °F 29.84 in Calm     95% 0.00 in
06:45 60.2 °F 58.8 °F 29.84 in Calm     95% 0.00 in
06:50 60.1 °F 58.7 °F 29.84 in Calm     95% 0.00 in
06:55 60.1 °F 58.7 °F 29.84 in Calm     95% 0.00 in
07:00 60.2 °F 58.8 °F 29.84 in Calm     95% 0.00 in
07:05 60.2 °F 58.8 °F 29.85 in Calm     95% 0.00 in
07:10 60.2 °F 58.8 °F 29.84 in Calm     95% 0.00 in
07:15 60.3 °F 58.9 °F 29.85 in Calm     95% 0.00 in
07:20 60.1 °F 58.7 °F 29.85 in South 1.0 mph 1.0 mph 95% 0.00 in
07:25 59.8 °F 58.7 °F 29.84 in SSE 1.0 mph 2.0 mph 96% 0.00 in
07:30 59.7 °F 58.6 °F 29.84 in SSW 1.0 mph 1.0 mph 96% 0.00 in
07:35 59.7 °F 58.3 °F 29.85 in SW 1.0 mph 1.0 mph 95% 0.00 in
07:40 59.6 °F 58.5 °F 29.85 in SW 1.0 mph 2.0 mph 96% 0.00 in
07:45 59.8 °F 58.7 °F 29.85 in WSW 1.0 mph 2.0 mph 96% 0.00 in
07:50 59.9 °F 58.8 °F 29.85 in SW 1.0 mph 1.0 mph 96% 0.00 in
07:55 59.7 °F 58.6 °F 29.85 in Calm     96% 0.00 in
08:00 59.7 °F 58.6 °F 29.85 in SW 1.0 mph 1.0 mph 96% 0.00 in
08:05 59.9 °F 58.5 °F 29.85 in SW 1.0 mph 1.0 mph 95% 0.00 in
08:10 60.0 °F 58.9 °F 29.85 in Calm   1.0 mph 96% 0.00 in
08:15 60.2 °F 59.1 °F 29.86 in SW 1.0 mph 1.0 mph 96% 0.00 in
08:20 60.4 °F 59.0 °F 29.86 in WSW 2.0 mph 2.0 mph 95% 0.00 in
08:25 60.4 °F 59.0 °F 29.86 in WSW 2.0 mph 2.0 mph 95% 0.00 in
08:30 60.5 °F 59.1 °F 29.86 in WSW 2.0 mph 3.0 mph 95% 0.00 in
08:35 60.5 °F 59.4 °F 29.86 in WSW 2.0 mph 2.0 mph 96% 0.00 in
08:40 60.5 °F 59.4 °F 29.86 in SSW 1.0 mph 3.0 mph 96% 0.00 in
08:45 60.6 °F 59.2 °F 29.86 in SW 1.0 mph 3.0 mph 95% 0.00 in
08:50 60.8 °F 59.4 °F 29.86 in SW 3.0 mph 3.0 mph 95% 0.00 in
08:55 60.8 °F 59.4 °F 29.86 in WSW 1.0 mph 2.0 mph 95% 0.00 in
09:00 60.8 °F 59.4 °F 29.86 in SW 3.0 mph 3.0 mph 95% 0.00 in
09:05 60.9 °F 59.5 °F 29.86 in WSW 3.0 mph 4.0 mph 95% 0.00 in
09:10 60.9 °F 59.5 °F 29.86 in West 2.0 mph 3.0 mph 95% 0.00 in
09:15 61.2 °F 59.8 °F 29.86 in WSW 2.0 mph 3.0 mph 95% 0.00 in
09:21 61.3 °F 59.9 °F 29.86 in West 2.0 mph 4.0 mph 95% 0.00 in
09:26 61.4 °F 60.0 °F 29.86 in West 1.0 mph 4.0 mph 95% 0.00 in
09:31 61.6 °F 60.2 °F 29.86 in West 2.0 mph 2.0 mph 95% 0.00 in
09:36 61.7 °F 60.3 °F 29.86 in WNW 2.0 mph 3.0 mph 95% 0.00 in
09:41 62.0 °F 60.6 °F 29.85 in Calm   1.0 mph 95% 0.00 in
09:47 62.2 °F 60.8 °F 29.85 in WSW 2.0 mph 3.0 mph 95% 0.00 in
09:52 62.3 °F 60.8 °F 29.85 in WSW 1.0 mph 2.0 mph 95% 0.00 in
09:57 62.4 °F 61.0 °F 29.85 in WNW 3.0 mph 3.0 mph 95% 0.00 in
10:03 62.5 °F 61.0 °F 29.86 in WNW 1.0 mph 4.0 mph 95% 0.00 in
10:08 62.9 °F 61.5 °F 29.85 in WSW 1.0 mph 2.0 mph 95% 0.00 in
10:13 63.1 °F 61.7 °F 29.85 in WSW 1.0 mph 3.0 mph 95% 0.00 in
10:18 63.3 °F 61.8 °F 29.86 in WNW 2.0 mph 3.0 mph 95% 0.00 in
10:23 63.5 °F 62.0 °F 29.85 in WSW 3.0 mph 3.0 mph 95% 0.00 in
10:28 63.9 °F 62.4 °F 29.86 in West 1.0 mph 4.0 mph 95% 0.00 in
10:33 64.0 °F 62.5 °F 29.86 in West 2.0 mph 4.0 mph 95% 0.00 in
10:38 64.2 °F 62.7 °F 29.86 in SW 1.0 mph 2.0 mph 95% 0.00 in
10:43 64.4 °F 62.9 °F 29.86 in West 1.0 mph 3.0 mph 95% 0.00 in
10:48 64.9 °F 63.4 °F 29.85 in WSW 4.0 mph 4.0 mph 95% 0.00 in
10:53 64.8 °F 63.3 °F 29.85 in West 3.0 mph 6.0 mph 95% 0.00 in
10:59 65.0 °F 63.5 °F 29.86 in SW 4.0 mph 4.0 mph 95% 0.00 in
11:04 65.2 °F 63.7 °F 29.86 in West 3.0 mph 4.0 mph 95% 0.00 in
11:09 66.2 °F 64.7 °F 29.86 in SW 4.0 mph 4.0 mph 95% 0.00 in
11:14 66.1 °F 64.6 °F 29.86 in SSE 2.0 mph 5.0 mph 95% 0.00 in
11:19 66.5 °F 65.0 °F 29.86 in West 3.0 mph 4.0 mph 95% 0.00 in
11:24 66.9 °F 65.1 °F 29.86 in Calm   3.0 mph 94% 0.00 in
11:29 67.2 °F 65.4 °F 29.86 in SW 1.0 mph 6.0 mph 94% 0.00 in
11:34 67.7 °F 65.9 °F 29.86 in West 1.0 mph 4.0 mph 94% 0.00 in
11:39 68.5 °F 66.4 °F 29.86 in WSW 4.0 mph 4.0 mph 93% 0.00 in
11:44 68.9 °F 66.5 °F 29.86 in WSW 1.0 mph 3.0 mph 92% 0.00 in
11:49 69.4 °F 66.0 °F 29.86 in WSW 2.0 mph 4.0 mph 89% 0.00 in
11:54 70.4 °F 67.3 °F 29.86 in WSW 4.0 mph 5.0 mph 90% 0.00 in
11:59 70.7 °F 66.7 °F 29.86 in Calm   5.0 mph 87% 0.00 in
12:04 71.3 °F 67.6 °F 29.86 in SSW 2.0 mph 2.0 mph 88% 0.00 in
12:09 72.0 °F 66.9 °F 29.86 in WSW 1.0 mph 6.0 mph 84% 0.00 in
12:14 72.4 °F 66.6 °F 29.85 in WSW 3.0 mph 4.0 mph 82% 0.00 in
12:19 72.4 °F 66.9 °F 29.86 in North 1.0 mph 3.0 mph 83% 0.00 in
12:24 72.7 °F 67.6 °F 29.86 in North 1.0 mph 3.0 mph 84% 0.00 in
12:29 72.5 °F 66.3 °F 29.86 in WSW 3.0 mph 5.0 mph 81% 0.00 in
12:34 72.9 °F 67.4 °F 29.86 in SSE 3.0 mph 4.0 mph 83% 0.00 in
12:40 73.2 °F 66.7 °F 29.85 in WSW 1.0 mph 6.0 mph 80% 0.00 in
12:45 73.4 °F 66.5 °F 29.85 in WNW 3.0 mph 4.0 mph 79% 0.00 in
12:50 73.4 °F 66.1 °F 29.85 in Calm   2.0 mph 78% 0.00 in
12:55 73.8 °F 66.2 °F 29.85 in ESE 2.0 mph 3.0 mph 77% 0.00 in
13:00 74.6 °F 67.3 °F 29.85 in SSW 1.0 mph 5.0 mph 78% 0.00 in
13:05 74.8 °F 66.7 °F 29.85 in WNW 3.0 mph 3.0 mph 76% 0.00 in
13:10 75.4 °F 65.8 °F 29.85 in East 1.0 mph 4.0 mph 72% 0.00 in
13:15 75.0 °F 65.8 °F 29.84 in Calm   2.0 mph 73% 0.00 in
13:20 75.3 °F 65.7 °F 29.84 in ENE 2.0 mph 3.0 mph 72% 0.00 in
13:25 75.7 °F 65.2 °F 29.85 in South 1.0 mph 2.0 mph 70% 0.00 in
13:30 76.6 °F 66.5 °F 29.84 in SE 4.0 mph 5.0 mph 71% 0.00 in
13:35 77.0 °F 66.5 °F 29.84 in SSW 3.0 mph 6.0 mph 70% 0.00 in
13:40 77.4 °F 66.0 °F 29.84 in SSW 3.0 mph 5.0 mph 68% 0.00 in
13:45 76.7 °F 64.5 °F 29.84 in Calm   6.0 mph 66% 0.00 in
13:50 76.9 °F 66.4 °F 29.84 in SE 5.0 mph 7.0 mph 70% 0.00 in
13:55 76.2 °F 65.7 °F 29.83 in SSW 5.0 mph 7.0 mph 70% 0.00 in
14:00 75.7 °F 64.8 °F 29.83 in ESE 3.0 mph 3.0 mph 69% 0.00 in
14:05 74.8 °F 64.8 °F 29.83 in SE 3.0 mph 6.0 mph 71% 0.00 in
14:10 74.2 °F 66.2 °F 29.82 in SE 3.0 mph 6.0 mph 76% 0.00 in
14:15 73.9 °F 65.5 °F 29.82 in South 1.0 mph 4.0 mph 75% 0.00 in
14:20 74.0 °F 66.0 °F 29.82 in SW 2.0 mph 2.0 mph 76% 0.00 in
14:25 74.0 °F 66.0 °F 29.82 in SSW 5.0 mph 5.0 mph 76% 0.00 in
14:30 74.0 °F 66.0 °F 29.81 in SSW 4.0 mph 6.0 mph 76% 0.00 in
14:35 74.2 °F 66.2 °F 29.81 in SSE 6.0 mph 6.0 mph 76% 0.00 in
14:40 74.3 °F 66.2 °F 29.81 in SSE 6.0 mph 7.0 mph 76% 0.00 in
14:45 74.3 °F 66.6 °F 29.81 in South 5.0 mph 7.0 mph 77% 0.00 in
14:46 74.2 °F 65.8 °F 29.80 in SSW 6.0 mph 8.0 mph 75% 0.00 in
14:51 74.2 °F 65.4 °F 29.81 in SW 6.0 mph 6.0 mph 74% 0.00 in
14:56 74.4 °F 66.7 °F 29.80 in SSW 7.0 mph 7.0 mph 77% 0.00 in
15:01 74.7 °F 66.3 °F 29.80 in SSE 4.0 mph 7.0 mph 75% 0.00 in
15:06 74.5 °F 66.1 °F 29.80 in SE 9.0 mph 11.0 mph 75% 0.00 in
15:11 75.0 °F 65.8 °F 29.79 in SSW 7.0 mph 13.0 mph 73% 0.00 in
15:17 75.5 °F 66.6 °F 29.78 in SSW 6.0 mph 10.0 mph 74% 0.00 in
15:22 75.9 °F 66.2 °F 29.78 in South 9.0 mph 11.0 mph 72% 0.00 in
15:27 76.3 °F 66.2 °F 29.78 in South 9.0 mph 13.0 mph 71% 0.00 in
15:32 76.6 °F 67.7 °F 29.79 in SW 4.0 mph 14.0 mph 74% 0.00 in
15:37 76.8 °F 67.1 °F 29.78 in WSW 6.0 mph 11.0 mph 72% 0.00 in
15:38 76.9 °F 67.2 °F 29.78 in SSE 4.0 mph 11.0 mph 72% 0.00 in
15:43 77.0 °F 67.3 °F 29.78 in SSE 6.0 mph 8.0 mph 72% 0.00 in
15:48 77.0 °F 67.3 °F 29.78 in ESE 9.0 mph 9.0 mph 72% 0.00 in
15:53 77.1 °F 67.0 °F 29.78 in SSE 5.0 mph 10.0 mph 71% 0.00 in
15:54 77.1 °F 66.6 °F 29.77 in SSW 7.0 mph 11.0 mph 70% 0.00 in
15:59 77.2 °F 67.5 °F 29.77 in SSE 10.0 mph 11.0 mph 72% 0.00 in
16:00 77.2 °F 67.1 °F 29.77 in SE 9.0 mph 11.0 mph 71% 0.00 in
16:05 77.3 °F 67.2 °F 29.76 in SSE 12.0 mph 12.0 mph 71% 0.00 in
16:10 77.4 °F 67.3 °F 29.76 in SSE 11.0 mph 13.0 mph 71% 0.00 in
16:15 76.9 °F 66.8 °F 29.75 in SSW 5.0 mph 9.0 mph 71% 0.00 in
16:20 76.1 °F 66.4 °F 29.75 in SSE 4.0 mph 12.0 mph 72% 0.00 in
16:25 75.5 °F 65.8 °F 29.76 in SSE 5.0 mph 9.0 mph 72% 0.00 in
16:30 75.0 °F 65.8 °F 29.76 in SSE 4.0 mph 6.0 mph 73% 0.00 in
16:35 74.8 °F 66.3 °F 29.76 in South 6.0 mph 7.0 mph 75% 0.00 in
16:40 74.6 °F 66.2 °F 29.75 in SE 3.0 mph 7.0 mph 75% 0.00 in
16:41 74.6 °F 66.2 °F 29.75 in SSW 3.0 mph 7.0 mph 75% 0.00 in
16:46 74.7 °F 65.9 °F 29.75 in Calm   5.0 mph 74% 0.00 in
16:51 75.0 °F 66.2 °F 29.76 in NNW 1.0 mph 4.0 mph 74% 0.00 in
16:56 75.5 °F 67.4 °F 29.77 in NNE 3.0 mph 6.0 mph 76% 0.00 in
17:01 75.5 °F 67.0 °F 29.79 in NE 8.0 mph 13.0 mph 75% 0.00 in
17:06 71.3 °F 57.6 °F 29.78 in NE 15.0 mph 18.0 mph 62% 0.00 in
17:11 68.3 °F 56.1 °F 29.79 in NE 7.0 mph 14.0 mph 65% 0.00 in
17:16 67.4 °F 54.4 °F 29.78 in ENE 6.0 mph 8.0 mph 63% 0.00 in
17:21 67.7 °F 55.1 °F 29.78 in NE 2.0 mph 5.0 mph 64% 0.00 in
17:26 67.7 °F 56.0 °F 29.78 in NE 4.0 mph 9.0 mph 66% 0.00 in
17:31 68.0 °F 57.1 °F 29.78 in NE 5.0 mph 13.0 mph 68% 0.00 in
17:36 67.7 °F 58.4 °F 29.78 in ENE 11.0 mph 11.0 mph 72% 0.00 in
17:41 67.7 °F 58.4 °F 29.79 in East 7.0 mph 12.0 mph 72% 0.00 in
17:46 67.2 °F 58.3 °F 29.79 in NE 5.0 mph 13.0 mph 73% 0.00 in
17:51 66.9 °F 58.0 °F 29.79 in NE 6.0 mph 11.0 mph 73% 0.00 in
17:56 66.4 °F 58.6 °F 29.79 in ENE 6.0 mph 11.0 mph 76% 0.00 in
18:01 65.8 °F 59.5 °F 29.80 in ENE 7.0 mph 9.0 mph 80% 0.00 in
18:06 65.4 °F 59.8 °F 29.80 in ENE 5.0 mph 6.0 mph 82% 0.00 in
18:11 65.2 °F 59.9 °F 29.80 in NNE 3.0 mph 7.0 mph 83% 0.00 in
18:16 65.1 °F 59.8 °F 29.80 in East 4.0 mph 7.0 mph 83% 0.00 in
18:21 65.1 °F 59.8 °F 29.80 in East 9.0 mph 11.0 mph 83% 0.00 in
18:26 65.1 °F 59.8 °F 29.80 in SE 9.0 mph 13.0 mph 83% 0.00 in
18:31 65.4 °F 60.5 °F 29.79 in ESE 6.0 mph 11.0 mph 84% 0.00 in
18:36 65.5 °F 60.9 °F 29.80 in SE 5.0 mph 9.0 mph 85% 0.00 in
18:41 65.6 °F 61.0 °F 29.79 in ESE 2.0 mph 4.0 mph 85% 0.00 in
18:46 65.5 °F 60.9 °F 29.80 in SE 4.0 mph 6.0 mph 85% 0.00 in
18:51 65.5 °F 60.9 °F 29.80 in ESE 3.0 mph 7.0 mph 85% 0.00 in
18:56 65.5 °F 60.9 °F 29.80 in SSE 5.0 mph 8.0 mph 85% 0.00 in
19:02 65.5 °F 60.5 °F 29.80 in SE 4.0 mph 8.0 mph 84% 0.00 in
19:07 65.6 °F 60.0 °F 29.80 in SE 4.0 mph 5.0 mph 82% 0.00 in
19:12 65.6 °F 59.3 °F 29.80 in SSE 2.0 mph 4.0 mph 80% 0.00 in
19:17 65.6 °F 58.6 °F 29.80 in Calm   3.0 mph 78% 0.00 in
19:22 65.6 °F 58.6 °F 29.80 in Calm   2.0 mph 78% 0.00 in
19:27 65.6 °F 58.6 °F 29.80 in Calm   1.0 mph 78% 0.00 in
19:32 65.5 °F 58.5 °F 29.80 in SSE 2.0 mph 2.0 mph 78% 0.00 in
19:37 65.2 °F 58.5 °F 29.81 in SSE 2.0 mph 5.0 mph 79% 0.00 in
19:42 64.7 °F 58.4 °F 29.81 in SSE 3.0 mph 3.0 mph 80% 0.00 in
19:47 64.6 °F 58.3 °F 29.81 in SE 5.0 mph 6.0 mph 80% 0.00 in
19:49 64.6 °F 58.3 °F 29.81 in SE 5.0 mph 7.0 mph 80% 0.00 in
19:54 64.6 °F 58.7 °F 29.81 in ESE 4.0 mph 7.0 mph 81% 0.00 in
19:59 64.6 °F 59.0 °F 29.81 in SE 5.0 mph 6.0 mph 82% 0.00 in
20:04 64.5 °F 58.9 °F 29.80 in ESE 5.0 mph 6.0 mph 82% 0.00 in
20:09 64.4 °F 59.1 °F 29.81 in East 3.0 mph 6.0 mph 83% 0.00 in
20:14 64.1 °F 59.2 °F 29.81 in NE 3.0 mph 5.0 mph 84% 0.00 in
20:19 64.1 °F 59.2 °F 29.81 in SSE 1.0 mph 3.0 mph 84% 0.00 in
20:24 64.1 °F 59.5 °F 29.81 in ESE 3.0 mph 4.0 mph 85% 0.00 in
20:29 63.7 °F 59.1 °F 29.81 in ESE 3.0 mph 5.0 mph 85% 0.00 in
20:34 63.3 °F 59.0 °F 29.81 in ESE 2.0 mph 3.0 mph 86% 0.00 in
20:39 63.0 °F 58.8 °F 29.81 in Calm   2.0 mph 86% 0.00 in
20:45 62.9 °F 59.0 °F 29.82 in SSW 4.0 mph 5.0 mph 87% 0.00 in
20:50 62.7 °F 59.1 °F 29.82 in SSW 2.0 mph 3.0 mph 88% 0.00 in
20:55 62.5 °F 58.9 °F 29.82 in East 1.0 mph 2.0 mph 88% 0.00 in
21:00 62.4 °F 59.1 °F 29.82 in Calm   1.0 mph 89% 0.00 in
21:05 62.2 °F 58.9 °F 29.82 in SSE 1.0 mph 2.0 mph 89% 0.00 in
21:10 61.9 °F 58.9 °F 29.82 in SSE 1.0 mph 2.0 mph 90% 0.00 in
21:15 61.6 °F 58.6 °F 29.82 in Calm     90% 0.00 in
21:20 61.4 °F 58.8 °F 29.82 in SW 1.0 mph 1.0 mph 91% 0.00 in
21:25 61.2 °F 58.2 °F 29.82 in South 2.0 mph 3.0 mph 90% 0.00 in
21:30 61.2 °F 57.9 °F 29.82 in SSW 1.0 mph 2.0 mph 89% 0.00 in
21:35 61.1 °F 57.8 °F 29.83 in Calm   2.0 mph 89% 0.00 in
21:40 61.0 °F 57.7 °F 29.83 in SW 2.0 mph 3.0 mph 89% 0.00 in
21:46 60.8 °F 57.8 °F 29.83 in SSW 1.0 mph 2.0 mph 90% 0.00 in
21:51 60.6 °F 57.7 °F 29.83 in SSE 1.0 mph 3.0 mph 90% 0.00 in
21:56 60.5 °F 57.6 °F 29.83 in SSE 1.0 mph 2.0 mph 90% 0.00 in
22:02 60.3 °F 57.7 °F 29.83 in SE 1.0 mph 2.0 mph 91% 0.00 in
22:07 60.1 °F 57.5 °F 29.83 in ESE 1.0 mph 1.0 mph 91% 0.00 in
22:12 60.0 °F 57.4 °F 29.84 in East 1.0 mph 1.0 mph 91% 0.00 in
22:17 60.0 °F 57.7 °F 29.84 in East 1.0 mph 1.0 mph 92% 0.00 in
22:22 59.8 °F 57.2 °F 29.84 in SE 1.0 mph 4.0 mph 91% 0.00 in
22:27 59.6 °F 57.3 °F 29.85 in Calm   1.0 mph 92% 0.00 in
22:32 59.4 °F 57.1 °F 29.85 in Calm   1.0 mph 92% 0.00 in
22:37 59.4 °F 57.1 °F 29.85 in SSE 2.0 mph 2.0 mph 92% 0.00 in
22:42 59.6 °F 57.6 °F 29.85 in SE 1.0 mph 4.0 mph 93% 0.00 in
22:47 59.7 °F 57.7 °F 29.85 in SSW 1.0 mph 1.0 mph 93% 0.00 in
22:53 59.8 °F 57.5 °F 29.85 in SSE 1.0 mph 2.0 mph 92% 0.00 in
22:58 59.7 °F 57.4 °F 29.85 in SW 2.0 mph 2.0 mph 92% 0.00 in
23:03 59.5 °F 57.2 °F 29.85 in SW 1.0 mph 2.0 mph 92% 0.00 in
23:08 59.4 °F 57.4 °F 29.85 in SSW 1.0 mph 2.0 mph 93% 0.00 in
23:13 59.3 °F 57.3 °F 29.85 in SSW 1.0 mph 2.0 mph 93% 0.00 in
23:18 59.4 °F 57.4 °F 29.85 in SSE 2.0 mph 3.0 mph 93% 0.00 in
23:23 59.4 °F 57.4 °F 29.85 in SSW 3.0 mph 3.0 mph 93% 0.00 in
23:28 59.6 °F 57.6 °F 29.85 in SW 3.0 mph 5.0 mph 93% 0.00 in
23:33 59.7 °F 57.7 °F 29.85 in South 1.0 mph 3.0 mph 93% 0.00 in
23:38 59.6 °F 57.6 °F 29.84 in Calm   2.0 mph 93% 0.00 in
23:43 59.5 °F 57.5 °F 29.84 in Calm   2.0 mph 93% 0.00 in
23:48 59.4 °F 57.4 °F 29.84 in SSW 1.0 mph 2.0 mph 93% 0.00 in
23:53 59.4 °F 57.4 °F 29.83 in Calm   1.0 mph 93% 0.00 in
23:58 59.4 °F 57.4 °F 29.83 in SE 1.0 mph 1.0 mph 93% 0.00 in
Compliments of Weather Underground